YPPHYBRM

Guest
Details From YPPH - Perth
To YBRM - Broome Intl
Flight Number -
Tags decoded
Created
Modified
Stats Distance 963 nm / 1,784 km
Max Altitude 0 ft / 0 m
Waypoints 5
Social Downloads 0
Likes 0
Share VATSIM

Download

Looking for another format? Having issues loading an existing format? Contact us
Advertisement - Login to hide

Notes

Requested: YPPH MRW Y44 PD J93 SNAPA YBRM Unmatched points: Y44

Route

YPPH MRW PD J93 SNAPA YBRM

ID Type Via Altitude Latitude Longitude Leg Dist Tot Dist Heading (true) Name
O YPPH APT - 0 ft / 0 m -31.93967˚ 115.96661˚ - 0 nm - Perth
MRW NDB - 0 ft / 0 m -29.20889˚ 116.02361˚ 164 nm 164 nm 1° / 1° MORAWA NDB
PD NDB - 0 ft / 0 m -20.38917˚ 118.64250˚ 548 nm 712 nm 16° / 15° PORT HEDLAND NDB
SNAPA FIX J93 (AWY-LO) 0 ft / 0 m -19.16667˚ 120.44333˚ 125 nm 838 nm 55° / 54° -
O YBRM APT - 0 ft / 0 m -17.94875˚ 122.22723˚ 125 nm 963 nm 55° / 54° Broome Intl

Altitude Profile

Advertisement - Login to hide

Weather


0- 5 10 15 20 25 30 35+ Temperature / ° C

Clouds and Precipitation
Forecast for 2017-12-19 00:00 UTC. Updated 2 hours ago

Ground ~20,000 ft ~40,000 ft Winds

YPPH

Details ICAO YPPH (PER)
Name Perth
Region Australia
Timezone Australia/Perth (UTC+8.0)
Stats Elevation 70 ft / 21 m (AMSL)
Location -31.939673° 115.966614°
Runways 2
Magnetic Variation 1.671° W

METAR

YPPH 182300Z 17010KT 9999 FEW040 15/09 Q1015 NOSIG

Decode

TAF

TAF YPPH 181704Z 1818/1924 20012KT 9999 -SHRA BKN020 FM182100 18012KT 9999 SCT025 FM190700 21014KT CAVOK FM191500 15008KT CAVOK FM192100 08012KT CAVOK

Decode

Departure Runways

ID Width Length Bearing (true) Bearing (mag) Surface Threshold Offset Overrun Length
03 151 ft / 46 m 11,390 ft / 3,472 m 13.89° 15.56° Asphalt 0 ft / 0 m 0 ft / 0 m
06 151 ft / 46 m 7,096 ft / 2,163 m 58.78° 60.45° Asphalt 0 ft / 0 m 0 ft / 0 m
21 151 ft / 46 m 11,390 ft / 3,472 m 193.88° 195.55° Asphalt 0 ft / 0 m 0 ft / 0 m
24 151 ft / 46 m 7,096 ft / 2,163 m 238.77° 240.44° Asphalt 0 ft / 0 m 0 ft / 0 m

YBRM

Details ICAO YBRM
Name Broome Intl
Region Australia
Timezone Australia/Perth (UTC+8.0)
Stats Elevation 56 ft / 17 m (AMSL)
Location -17.948745° 122.227225°
Runways 1
Magnetic Variation 1.800° E

METAR

YBRM 182300Z 27010KT 9999 SCT023 30/24 Q1007

Decode

TAF

TAF YBRM 181704Z 1818/1918 26008KT 9999 SCT018 FM190000 28012KT CAVOK

Decode

Destination Runways

ID Width Length Bearing (true) Bearing (mag) Surface Threshold Offset Overrun Length
10 148 ft / 45 m 8,325 ft / 2,537 m 105.60° 103.80° Asphalt 292 ft / 89 m 52 ft / 16 m
28 148 ft / 45 m 8,325 ft / 2,537 m 285.60° 283.80° Asphalt 666 ft / 203 m 0 ft / 0 m

Popular Alternatives